createdAt,value
2017-12-24T00:02:06.861Z,17.50
2017-12-24T00:04:34.387Z,17.87
2017-12-24T00:07:02.659Z,19.87
2017-12-24T00:09:30.959Z,18.90
2017-12-24T00:11:58.471Z,17.10
2017-12-24T00:14:25.987Z,18.40
2017-12-24T00:16:53.529Z,21.77
2017-12-24T00:19:21.098Z,19.50
2017-12-24T00:21:48.595Z,19.33
2017-12-24T00:24:16.123Z,20.80
2017-12-24T00:26:43.618Z,17.60
2017-12-24T00:29:11.132Z,17.07
2017-12-24T00:31:38.630Z,17.90
2017-12-24T00:34:06.154Z,18.80
2017-12-24T00:36:33.650Z,18.60
2017-12-24T00:39:01.178Z,17.50
2017-12-24T00:41:28.682Z,17.53
2017-12-24T00:43:56.199Z,18.07
2017-12-24T00:46:23.695Z,17.27
2017-12-24T00:48:51.190Z,19.10
2017-12-24T00:51:18.704Z,18.30
2017-12-24T00:53:46.212Z,17.90
2017-12-24T00:56:13.727Z,18.50
2017-12-24T00:58:41.227Z,17.07
2017-12-24T01:01:08.754Z,17.07
2017-12-24T01:03:36.293Z,16.53
2017-12-24T01:06:03.835Z,18.37
2017-12-24T01:08:31.334Z,19.17
2017-12-24T01:10:59.625Z,17.63
2017-12-24T01:13:27.142Z,18.47
2017-12-24T01:15:54.637Z,17.30
2017-12-24T01:18:22.146Z,17.07
2017-12-24T01:20:49.642Z,16.97
2017-12-24T01:23:17.922Z,15.63
2017-12-24T01:25:46.182Z,16.93
2017-12-24T01:28:13.698Z,16.40
2017-12-24T01:30:41.210Z,16.87
2017-12-24T01:33:09.499Z,18.07
2017-12-24T01:35:36.998Z,16.20
2017-12-24T01:38:04.494Z,16.50
2017-12-24T01:40:32.773Z,16.80
2017-12-24T01:43:01.035Z,17.10
2017-12-24T01:45:28.550Z,16.33
2017-12-24T01:47:56.051Z,16.87
2017-12-24T01:50:23.567Z,16.57
2017-12-24T01:52:51.072Z,16.73
2017-12-24T01:55:18.590Z,17.13
2017-12-24T01:57:46.095Z,17.17
2017-12-24T02:00:14.374Z,16.13
2017-12-24T02:02:42.680Z,16.53
2017-12-24T02:05:10.214Z,17.93
2017-12-24T02:07:38.482Z,15.57
2017-12-24T02:10:06.744Z,14.83
2017-12-24T02:12:34.263Z,15.00
2017-12-24T02:15:01.766Z,16.30
2017-12-24T02:17:30.053Z,14.40
2017-12-24T02:19:58.314Z,16.37
2017-12-24T02:22:25.830Z,14.33
2017-12-24T02:24:53.335Z,14.50
2017-12-24T02:27:21.619Z,14.40
2017-12-24T02:29:49.887Z,15.10
2017-12-24T02:32:17.398Z,16.73
2017-12-24T02:34:44.891Z,15.40
2017-12-24T02:37:12.416Z,15.60
2017-12-24T02:39:39.914Z,15.53
2017-12-24T02:42:07.434Z,14.57
2017-12-24T02:44:34.936Z,16.23
2017-12-24T02:47:03.220Z,15.20
2017-12-24T02:49:31.493Z,15.00
2017-12-24T02:51:59.778Z,15.67
2017-12-24T02:54:27.294Z,15.77
2017-12-24T02:56:54.819Z,14.83
2017-12-24T02:59:22.326Z,15.33
2017-12-24T03:01:49.834Z,15.40
2017-12-24T03:04:17.335Z,13.80
2017-12-24T03:06:44.862Z,15.20
2017-12-24T03:09:12.363Z,14.63
2017-12-24T03:11:39.874Z,13.80
2017-12-24T03:14:07.390Z,13.47
2017-12-24T03:16:35.654Z,13.30
2017-12-24T03:19:03.178Z,14.00
2017-12-24T03:21:30.674Z,14.80
2017-12-24T03:23:58.183Z,14.53
2017-12-24T03:26:25.919Z,14.30
2017-12-24T03:28:53.437Z,14.50
2017-12-24T03:31:20.957Z,13.50
2017-12-24T03:33:48.478Z,16.00
2017-12-24T03:36:16.738Z,13.57
2017-12-24T03:38:44.248Z,13.40
2017-12-24T03:41:11.751Z,14.00
2017-12-24T03:43:39.271Z,14.63
2017-12-24T03:46:06.776Z,16.47
2017-12-24T03:48:35.062Z,13.70
2017-12-24T03:51:03.327Z,15.30
2017-12-24T03:53:30.850Z,15.53
2017-12-24T03:55:58.352Z,14.27
2017-12-24T03:58:26.636Z,14.87
2017-12-24T04:00:54.895Z,14.90
2017-12-24T04:03:22.446Z,14.30
2017-12-24T04:05:49.951Z,13.60
2017-12-24T04:08:17.453Z,15.90
2017-12-24T04:10:44.967Z,13.77
2017-12-24T04:13:12.477Z,14.23
2017-12-24T04:15:39.994Z,14.47
2017-12-24T04:18:07.499Z,13.30
2017-12-24T04:20:35.030Z,15.90
2017-12-24T04:23:02.547Z,14.90
2017-12-24T04:25:30.075Z,15.03
2017-12-24T04:27:57.574Z,15.03
2017-12-24T04:30:25.132Z,14.43
2017-12-24T04:32:52.630Z,12.93
2017-12-24T04:35:20.130Z,15.57
2017-12-24T04:37:47.650Z,14.03
2017-12-24T04:40:15.154Z,15.60
2017-12-24T04:42:42.675Z,14.83
2017-12-24T04:45:10.179Z,15.50
2017-12-24T04:47:37.690Z,15.90
2017-12-24T04:50:05.191Z,15.03
2017-12-24T04:52:32.704Z,16.10
2017-12-24T04:55:00.210Z,15.37
2017-12-24T04:57:27.718Z,14.57
2017-12-24T04:59:55.217Z,14.80
2017-12-24T05:02:22.746Z,14.10
2017-12-24T05:04:50.246Z,14.13
2017-12-24T05:07:17.780Z,14.23
2017-12-24T05:09:46.055Z,15.07
2017-12-24T05:12:14.329Z,12.87
2017-12-24T05:14:42.594Z,14.13
2017-12-24T05:17:10.884Z,13.70
2017-12-24T05:19:39.142Z,14.63
2017-12-24T05:22:06.639Z,12.87
2017-12-24T05:24:34.159Z,14.67
2017-12-24T05:27:02.438Z,15.57
2017-12-24T05:29:30.727Z,15.00
2017-12-24T05:31:58.990Z,15.17
2017-12-24T05:34:27.275Z,14.27
2017-12-24T05:36:55.546Z,14.60
2017-12-24T05:39:23.822Z,15.27
2017-12-24T05:41:52.085Z,13.67
2017-12-24T05:44:19.606Z,14.40
2017-12-24T05:46:47.107Z,15.33
2017-12-24T05:49:15.386Z,17.20
2017-12-24T05:51:43.650Z,14.13
2017-12-24T05:54:11.170Z,15.47
2017-12-24T05:56:38.670Z,15.23
2017-12-24T05:59:06.188Z,14.10
2017-12-24T06:01:33.686Z,16.30
2017-12-24T06:04:01.203Z,15.07
2017-12-24T06:06:28.715Z,16.73
2017-12-24T06:08:57.007Z,15.93
2017-12-24T06:11:24.508Z,15.47
2017-12-24T06:13:52.071Z,15.13
2017-12-24T06:16:19.566Z,16.77
2017-12-24T06:18:47.842Z,14.67
2017-12-24T06:21:16.114Z,17.37
2017-12-24T06:23:44.406Z,16.97
2017-12-24T06:26:11.899Z,16.17
2017-12-24T06:28:39.414Z,14.50
2017-12-24T06:31:07.680Z,14.40
2017-12-24T06:33:35.963Z,16.83
2017-12-24T06:36:04.222Z,14.70
2017-12-24T06:38:31.727Z,15.60
2017-12-24T06:40:59.242Z,15.10
2017-12-24T06:43:26.743Z,15.60
2017-12-24T06:45:54.299Z,15.40
2017-12-24T06:48:21.791Z,15.40
2017-12-24T06:50:49.306Z,16.10
2017-12-24T06:53:16.806Z,15.70
2017-12-24T06:55:44.322Z,14.90
2017-12-24T06:58:11.822Z,16.37
2017-12-24T07:00:39.335Z,15.53
2017-12-24T07:03:06.826Z,16.40
2017-12-24T07:05:34.334Z,15.60
2017-12-24T07:08:02.599Z,14.20
2017-12-24T07:10:30.158Z,15.17
2017-12-24T07:12:57.646Z,14.90
2017-12-24T07:15:25.146Z,15.20
2017-12-24T07:17:52.668Z,16.13
2017-12-24T07:20:20.175Z,16.23
2017-12-24T07:22:47.683Z,16.90
2017-12-24T07:25:15.186Z,23.47
2017-12-24T07:27:42.702Z,16.57
2017-12-24T07:30:10.203Z,16.63
2017-12-24T07:32:37.723Z,14.37
2017-12-24T07:35:05.218Z,20.27
2017-12-24T07:37:32.733Z,15.70
2017-12-24T07:40:00.231Z,16.00
2017-12-24T07:42:28.074Z,17.30
2017-12-24T07:44:55.575Z,15.13
2017-12-24T07:47:23.090Z,16.13
2017-12-24T07:49:50.595Z,14.53
2017-12-24T07:52:18.878Z,16.80
2017-12-24T07:54:47.138Z,37.60
2017-12-24T07:57:14.672Z,15.20
2017-12-24T07:59:42.182Z,14.60
2017-12-24T08:02:09.687Z,15.20
2017-12-24T08:04:37.216Z,15.03
2017-12-24T08:07:04.714Z,14.73
2017-12-24T08:09:32.223Z,15.47
2017-12-24T08:11:59.758Z,14.90
2017-12-24T08:14:28.050Z,14.40
2017-12-24T08:16:55.556Z,14.70
2017-12-24T08:19:23.077Z,12.90
2017-12-24T08:21:50.582Z,15.57
2017-12-24T08:24:18.103Z,14.40
2017-12-24T08:26:45.615Z,14.20
2017-12-24T08:29:13.895Z,14.73
2017-12-24T08:31:42.154Z,14.03
2017-12-24T08:34:09.685Z,14.20
2017-12-24T08:36:37.191Z,14.80
2017-12-24T08:39:04.720Z,14.33
2017-12-24T08:41:32.240Z,16.23
2017-12-24T08:43:59.755Z,15.47
2017-12-24T08:46:27.271Z,14.83
2017-12-24T08:48:54.810Z,14.00
2017-12-24T08:51:22.335Z,14.83
2017-12-24T08:53:50.607Z,14.30
2017-12-24T08:56:18.896Z,13.50
2017-12-24T08:58:47.169Z,15.30
2017-12-24T09:01:15.455Z,14.07
2017-12-24T09:03:43.727Z,13.63
2017-12-24T09:06:12.015Z,14.77
2017-12-24T09:08:39.530Z,14.53
2017-12-24T09:11:07.058Z,14.30
2017-12-24T09:13:34.564Z,12.27
2017-12-24T09:16:02.850Z,12.70
2017-12-24T09:18:31.116Z,13.03
2017-12-24T09:20:59.400Z,13.17
2017-12-24T09:23:27.667Z,12.60
2017-12-24T09:25:55.954Z,12.83
2017-12-24T09:28:24.219Z,11.97
2017-12-24T09:30:51.740Z,13.33
2017-12-24T09:33:19.255Z,13.20
2017-12-24T09:35:46.771Z,13.70
2017-12-24T09:38:14.275Z,13.53
2017-12-24T09:40:41.790Z,12.17
2017-12-24T09:43:09.290Z,12.83
2017-12-24T09:45:36.811Z,13.67
2017-12-24T09:48:04.323Z,12.07
2017-12-24T09:50:31.842Z,11.30
2017-12-24T09:53:00.111Z,9.80
2017-12-24T09:55:27.630Z,11.00
2017-12-24T09:57:55.126Z,11.10
2017-12-24T10:00:22.707Z,10.87
2017-12-24T10:02:50.983Z,10.50
2017-12-24T10:05:19.302Z,9.00
2017-12-24T10:07:46.798Z,9.70
2017-12-24T10:10:14.304Z,8.47
2017-12-24T10:12:41.814Z,9.40
2017-12-24T10:15:09.323Z,10.70
2017-12-24T10:17:36.834Z,10.20
2017-12-24T10:20:05.103Z,8.93
2017-12-24T10:22:32.615Z,8.90
2017-12-24T10:25:00.120Z,9.83
2017-12-24T10:27:27.631Z,9.30
2017-12-24T10:29:55.131Z,9.17
2017-12-24T10:32:23.422Z,8.53
2017-12-24T10:34:51.686Z,8.30
2017-12-24T10:37:19.198Z,8.60
2017-12-24T10:39:46.701Z,8.50
2017-12-24T10:42:14.200Z,8.50
2017-12-24T10:44:41.710Z,6.83
2017-12-24T10:47:09.207Z,7.13
2017-12-24T10:49:36.730Z,7.70
2017-12-24T10:52:04.235Z,7.23
2017-12-24T10:54:31.767Z,6.60
2017-12-24T10:57:00.042Z,9.27
2017-12-24T10:59:28.334Z,7.53
2017-12-24T11:01:55.851Z,10.00
2017-12-24T11:04:23.367Z,7.93
2017-12-24T11:06:50.867Z,7.13
2017-12-24T11:09:18.388Z,11.17
2017-12-24T11:11:45.888Z,9.80
2017-12-24T11:14:13.410Z,10.97
2017-12-24T11:16:40.907Z,9.80
2017-12-24T11:19:08.422Z,11.00
2017-12-24T11:21:35.931Z,12.70
2017-12-24T11:24:04.234Z,6.90
2017-12-24T11:26:31.734Z,7.73
2017-12-24T11:28:59.247Z,6.43
2017-12-24T11:31:26.742Z,6.60
2017-12-24T11:33:54.297Z,8.03
2017-12-24T11:36:21.791Z,6.37
2017-12-24T11:38:49.286Z,6.70
2017-12-24T11:41:16.795Z,6.10
2017-12-24T11:43:44.291Z,6.53
2017-12-24T11:46:12.567Z,6.47
2017-12-24T11:48:40.062Z,6.40
2017-12-24T11:51:07.603Z,6.07
2017-12-24T11:53:35.099Z,6.13
2017-12-24T11:56:02.607Z,6.20
2017-12-24T11:58:30.188Z,5.77
2017-12-24T12:00:57.723Z,5.90
2017-12-24T12:03:25.234Z,6.30
2017-12-24T12:05:53.007Z,6.17
2017-12-24T12:08:20.504Z,6.10
2017-12-24T12:10:48.005Z,5.77
2017-12-24T12:13:15.527Z,6.07
2017-12-24T12:15:43.027Z,6.10
2017-12-24T12:18:10.545Z,5.10
2017-12-24T12:20:38.037Z,4.90
2017-12-24T12:23:05.555Z,5.70
2017-12-24T12:25:33.051Z,5.30
2017-12-24T12:28:00.575Z,5.50
2017-12-24T12:30:28.073Z,5.70
2017-12-24T12:32:55.584Z,5.20
2017-12-24T12:35:23.100Z,4.93
2017-12-24T12:37:50.746Z,6.00
2017-12-24T12:40:18.366Z,5.13
2017-12-24T12:42:45.871Z,6.53
2017-12-24T12:45:13.426Z,5.00
2017-12-24T12:47:40.927Z,5.50
2017-12-24T12:50:08.444Z,5.17
2017-12-24T12:52:35.943Z,5.13
2017-12-24T12:55:04.219Z,5.77
2017-12-24T12:57:32.480Z,4.87
2017-12-24T13:00:00.768Z,4.70
2017-12-24T13:02:29.036Z,5.00
2017-12-24T13:04:57.327Z,4.57
2017-12-24T13:07:24.832Z,5.50
2017-12-24T13:09:52.382Z,5.00
2017-12-24T13:12:19.880Z,4.33
2017-12-24T13:14:48.146Z,5.07
2017-12-24T13:17:15.659Z,4.80
2017-12-24T13:19:43.155Z,5.63
2017-12-24T13:22:10.672Z,4.53
2017-12-24T13:24:38.227Z,5.03
2017-12-24T13:27:06.467Z,5.03
2017-12-24T13:29:34.734Z,5.00
2017-12-24T13:32:02.247Z,4.67
2017-12-24T13:34:29.743Z,5.27
2017-12-24T13:36:57.255Z,4.73
2017-12-24T13:39:24.750Z,5.20
2017-12-24T13:41:52.259Z,5.40
2017-12-24T13:44:19.755Z,4.30
2017-12-24T13:46:47.262Z,4.93
2017-12-24T13:49:14.754Z,4.90
2017-12-24T13:51:42.267Z,4.90
2017-12-24T13:54:10.522Z,5.00
2017-12-24T13:56:38.031Z,3.97
2017-12-24T13:59:05.525Z,4.63
2017-12-24T14:01:33.034Z,5.07
2017-12-24T14:04:00.531Z,4.83
2017-12-24T14:06:28.083Z,4.13
2017-12-24T14:08:55.574Z,4.30
2017-12-24T14:11:23.855Z,4.73
2017-12-24T14:13:52.142Z,10.20
2017-12-24T14:16:20.398Z,5.30
2017-12-24T14:18:47.916Z,5.43
2017-12-24T14:21:15.412Z,5.00
2017-12-24T14:23:42.926Z,4.70
2017-12-24T14:26:10.418Z,4.60
2017-12-24T14:28:37.926Z,4.73
2017-12-24T14:31:05.418Z,4.40
2017-12-24T14:33:32.927Z,4.20
2017-12-24T14:36:01.249Z,4.53
2017-12-24T14:38:28.950Z,4.50
2017-12-24T14:40:56.522Z,4.80
2017-12-24T14:43:24.891Z,5.10
2017-12-24T14:45:52.486Z,5.60
2017-12-24T14:48:19.994Z,5.20
2017-12-24T14:50:47.490Z,6.37
2017-12-24T14:53:15.052Z,6.10
2017-12-24T14:55:42.543Z,4.90
2017-12-24T14:58:10.035Z,4.33
2017-12-24T15:00:37.547Z,5.23
2017-12-24T15:03:05.043Z,6.40
2017-12-24T15:05:32.564Z,6.00
2017-12-24T15:08:00.059Z,5.50
2017-12-24T15:10:28.359Z,5.60
2017-12-24T15:12:56.618Z,6.00
2017-12-24T15:15:24.131Z,6.00
2017-12-24T15:17:51.634Z,6.73
2017-12-24T15:20:19.142Z,5.63
2017-12-24T15:22:46.634Z,5.73
2017-12-24T15:25:14.150Z,5.03
2017-12-24T15:27:41.646Z,6.13
2017-12-24T15:30:09.155Z,6.07
2017-12-24T15:32:36.658Z,6.00
2017-12-24T15:35:04.184Z,7.33
2017-12-24T15:37:31.683Z,7.90
2017-12-24T15:39:59.203Z,7.27
2017-12-24T15:42:26.702Z,7.70
2017-12-24T15:44:54.259Z,7.83
2017-12-24T15:47:21.755Z,7.87
2017-12-24T15:49:50.010Z,7.23
2017-12-24T15:52:17.522Z,5.90
2017-12-24T15:54:45.024Z,6.87
2017-12-24T15:57:12.551Z,7.40
2017-12-24T15:59:40.046Z,8.13
2017-12-24T16:02:08.335Z,6.50
2017-12-24T16:04:36.602Z,7.10
2017-12-24T16:07:04.954Z,8.20
2017-12-24T16:09:32.503Z,8.97
2017-12-24T16:12:00.292Z,9.33
2017-12-24T16:14:28.609Z,8.73
2017-12-24T16:16:56.124Z,8.40
2017-12-24T16:19:23.642Z,7.10
2017-12-24T16:21:51.143Z,6.33
2017-12-24T16:24:18.659Z,7.60
2017-12-24T16:26:46.159Z,8.73
2017-12-24T16:29:13.674Z,9.47
2017-12-24T16:31:41.171Z,6.90
2017-12-24T16:34:10.290Z,6.83
2017-12-24T16:36:38.556Z,6.60
2017-12-24T16:39:06.819Z,5.77
2017-12-24T16:41:34.343Z,10.40
2017-12-24T16:44:01.839Z,9.70
2017-12-24T16:46:29.360Z,7.10
2017-12-24T16:48:56.851Z,7.53
2017-12-24T16:51:24.358Z,9.77
2017-12-24T16:53:51.850Z,9.30
2017-12-24T16:56:19.367Z,9.97
2017-12-24T16:58:46.870Z,9.70
2017-12-24T17:01:14.391Z,10.63
2017-12-24T17:03:41.891Z,10.17
2017-12-24T17:06:09.406Z,12.07
2017-12-24T17:08:36.913Z,11.67
2017-12-24T17:11:04.415Z,9.87
2017-12-24T17:13:31.998Z,11.23
2017-12-24T17:15:59.466Z,10.67
2017-12-24T17:18:26.988Z,11.93
2017-12-24T17:20:54.488Z,11.87
2017-12-24T17:23:22.007Z,12.43
2017-12-24T17:25:49.516Z,11.63
2017-12-24T17:28:17.035Z,12.70
2017-12-24T17:30:44.530Z,10.87
2017-12-24T17:33:12.054Z,11.87
2017-12-24T17:35:39.550Z,12.27
2017-12-24T17:38:07.133Z,12.97
2017-12-24T17:40:35.445Z,13.90
2017-12-24T17:43:02.986Z,12.57
2017-12-24T17:45:30.543Z,13.03
2017-12-24T17:47:58.088Z,13.57
2017-12-24T17:50:26.355Z,18.10
2017-12-24T17:52:54.643Z,12.47
2017-12-24T17:55:22.902Z,11.10
2017-12-24T17:57:51.218Z,10.20
2017-12-24T18:00:18.725Z,11.13
2017-12-24T18:02:46.222Z,12.67
2017-12-24T18:05:13.749Z,11.10
2017-12-24T18:07:42.019Z,11.53
2017-12-24T18:10:09.530Z,12.27
2017-12-24T18:12:37.026Z,12.57
2017-12-24T18:15:04.544Z,12.60
2017-12-24T18:17:32.041Z,12.33
2017-12-24T18:19:59.557Z,10.40
2017-12-24T18:22:27.059Z,12.23
2017-12-24T18:24:54.559Z,12.17
2017-12-24T18:27:22.076Z,12.53
2017-12-24T18:29:49.580Z,11.67
2017-12-24T18:32:17.098Z,10.70
2017-12-24T18:34:44.598Z,10.83
2017-12-24T18:37:12.115Z,12.00
2017-12-24T18:39:39.616Z,12.60
2017-12-24T18:42:07.181Z,12.20
2017-12-24T18:44:34.683Z,11.37
2017-12-24T18:47:02.193Z,12.60
2017-12-24T18:49:29.699Z,12.73
2017-12-24T18:51:57.224Z,12.53
2017-12-24T18:54:24.731Z,13.17
2017-12-24T18:56:53.055Z,11.87
2017-12-24T18:59:20.596Z,13.40
2017-12-24T19:01:48.136Z,12.53
2017-12-24T19:04:16.422Z,13.70
2017-12-24T19:06:43.927Z,13.67
2017-12-24T19:09:11.438Z,14.40
2017-12-24T19:11:38.938Z,11.67
2017-12-24T19:14:06.456Z,12.97
2017-12-24T19:16:33.970Z,11.47
2017-12-24T19:19:01.491Z,13.70
2017-12-24T19:21:28.992Z,12.70
2017-12-24T19:23:56.554Z,12.73
2017-12-24T19:26:24.050Z,13.60
2017-12-24T19:28:51.681Z,12.60
2017-12-24T19:31:19.971Z,13.57
2017-12-24T19:33:48.281Z,12.73
2017-12-24T19:36:15.799Z,12.07
2017-12-24T19:38:44.105Z,12.00
2017-12-24T19:41:11.626Z,12.23
2017-12-24T19:43:39.119Z,12.87
2017-12-24T19:46:06.682Z,11.90
2017-12-24T19:48:34.229Z,12.43
2017-12-24T19:51:01.785Z,11.50
2017-12-24T19:53:29.324Z,12.10
2017-12-24T19:55:57.643Z,11.87
2017-12-24T19:58:25.147Z,14.20
2017-12-24T20:00:52.692Z,13.00
2017-12-24T20:03:20.211Z,14.50
2017-12-24T20:05:47.762Z,12.70
2017-12-24T20:08:15.324Z,15.43
2017-12-24T20:10:42.878Z,23.30
2017-12-24T20:13:10.398Z,17.47
2017-12-24T20:15:37.954Z,20.55
2017-12-24T20:18:05.529Z,17.87
2017-12-24T20:20:33.854Z,19.43
2017-12-24T20:23:01.397Z,16.57
2017-12-24T20:25:28.920Z,12.00
2017-12-24T20:27:57.233Z,11.10
2017-12-24T20:30:24.810Z,11.50
2017-12-24T20:32:52.307Z,12.37
2017-12-24T20:35:19.873Z,15.90
2017-12-24T20:37:48.198Z,16.23
2017-12-24T20:40:15.774Z,17.87
2017-12-24T20:42:43.336Z,12.47
2017-12-24T20:45:10.918Z,14.10
2017-12-24T20:47:38.465Z,15.80
2017-12-24T20:50:06.024Z,17.80
2017-12-24T20:52:33.564Z,18.27
2017-12-24T20:55:01.132Z,18.70
2017-12-24T20:57:28.681Z,18.53
2017-12-24T20:59:56.206Z,20.90
2017-12-24T21:02:23.748Z,20.37
2017-12-24T21:04:52.076Z,20.53
2017-12-24T21:07:19.834Z,21.90
2017-12-24T21:09:47.405Z,24.20
2017-12-24T21:12:14.982Z,24.93
2017-12-24T21:14:42.482Z,22.27
2017-12-24T21:17:10.059Z,21.97
2017-12-24T21:19:37.600Z,19.87
2017-12-24T21:22:05.170Z,20.07
2017-12-24T21:24:32.730Z,19.47
2017-12-24T21:27:00.294Z,22.13
2017-12-24T21:29:27.839Z,23.10
2017-12-24T21:31:55.418Z,22.60
2017-12-24T21:34:22.918Z,23.37
2017-12-24T21:36:50.499Z,24.50
2017-12-24T21:39:18.761Z,19.60
2017-12-24T21:41:46.325Z,18.97
2017-12-24T21:44:14.650Z,17.80
2017-12-24T21:46:42.210Z,17.97
2017-12-24T21:49:09.757Z,16.70
2017-12-24T21:51:37.305Z,18.17
2017-12-24T21:54:04.831Z,25.87
2017-12-24T21:56:32.380Z,20.83
2017-12-24T21:58:59.948Z,20.10
2017-12-24T22:01:27.501Z,23.07
2017-12-24T22:03:55.077Z,19.03
2017-12-24T22:06:23.379Z,17.30
2017-12-24T22:08:50.962Z,21.37
2017-12-24T22:11:18.472Z,21.90
2017-12-24T22:13:46.761Z,21.87
2017-12-24T22:16:14.327Z,22.37
2017-12-24T22:18:41.890Z,21.20
2017-12-24T22:21:09.441Z,22.27
2017-12-24T22:23:36.991Z,19.03
2017-12-24T22:26:05.282Z,22.53
2017-12-24T22:28:32.829Z,22.83
2017-12-24T22:31:00.355Z,18.53
2017-12-24T22:33:27.899Z,19.13
2017-12-24T22:35:55.455Z,23.57
2017-12-24T22:38:23.009Z,18.07
2017-12-24T22:40:50.568Z,20.30
2017-12-24T22:43:18.125Z,21.53
2017-12-24T22:45:45.649Z,22.50
2017-12-24T22:48:13.195Z,25.37
2017-12-24T22:50:41.478Z,20.77
2017-12-24T22:53:09.797Z,26.93
2017-12-24T22:55:37.375Z,20.47
2017-12-24T22:58:04.925Z,22.33
2017-12-24T23:00:32.448Z,21.50
2017-12-24T23:03:00.000Z,22.10
2017-12-24T23:05:27.889Z,18.63
2017-12-24T23:07:55.460Z,23.40
2017-12-24T23:10:23.013Z,21.63
2017-12-24T23:12:50.580Z,22.07
2017-12-24T23:15:18.120Z,18.13
2017-12-24T23:17:45.643Z,17.30
2017-12-24T23:20:13.906Z,21.70
2017-12-24T23:22:41.472Z,21.27
2017-12-24T23:25:09.738Z,16.60
2017-12-24T23:27:37.261Z,19.00
2017-12-24T23:30:04.801Z,22.57
2017-12-24T23:32:32.321Z,26.10
2017-12-24T23:35:00.633Z,23.13
2017-12-24T23:37:28.199Z,22.33
2017-12-24T23:39:55.748Z,23.87
2017-12-24T23:42:23.540Z,19.47
2017-12-24T23:44:51.092Z,38.90
2017-12-24T23:47:18.619Z,23.53
2017-12-24T23:49:46.169Z,19.90
2017-12-24T23:52:14.493Z,15.70
2017-12-24T23:54:41.994Z,23.07
2017-12-24T23:57:10.326Z,19.37
2017-12-24T23:59:37.868Z,16.07
